Time;durP1;ratioP1;P1;durP2;ratioP2;P2;SDS_P1;SDS_P2;PMS_P1;PMS_P2;Temp;Humidity;BMP_temperature;BMP_pressure;BME280_temperature;BME280_humidity;BME280_pressure;Samples;Min_cycle;Max_cycle;Signal;HPM_P1;HPM_P2
2022/06/05 00:01:37;;;;;;;0.30;0.30;;;;;;;;;;4903614;29;20047;-90
2022/06/05 00:04:03;;;;;;;0.10;0.10;;;;;;;;;;4903759;29;20047;-90
2022/06/05 00:06:41;;;;;;;0.10;0.10;;;;;;;;;;4907849;29;20035;-90
2022/06/05 00:09:20;;;;;;;0.10;0.10;;;;;;;;;;4895957;29;20042;-90
2022/06/05 00:12:03;;;;;;;0.20;0.20;;;;;;;;;;4893987;29;20047;-90
2022/06/05 00:14:30;;;;;;;0.10;0.10;;;;;;;;;;4887916;29;20058;-90
2022/06/05 00:16:56;;;;;;;0.15;0.15;;;;;;;;;;4909021;29;20050;-90
2022/06/05 00:19:22;;;;;;;0.10;0.10;;;;;;;;;;4895241;29;20130;-89
2022/06/05 00:21:49;;;;;;;0.20;0.20;;;;;;;;;;4905815;29;20373;-90
2022/06/05 00:24:15;;;;;;;0.10;0.10;;;;;;;;;;4903063;29;20086;-90
2022/06/05 00:26:41;;;;;;;0.10;0.10;;;;;;;;;;4903010;29;20036;-90
2022/06/05 00:29:13;;;;;;;0.10;0.10;;;;;;;;;;4918587;29;20040;-89
2022/06/05 00:31:39;;;;;;;;;;;;;;;;;;4918737;29;20047;-90
2022/06/05 00:34:05;;;;;;;0.10;0.10;;;;;;;;;;4902751;29;19922;-90
2022/06/05 00:36:47;;;;;;;0.10;0.10;;;;;;;;;;4887749;29;20040;-90
2022/06/05 00:39:25;;;;;;;0.10;0.10;;;;;;;;;;4887435;29;20400;-90
2022/06/05 00:42:10;;;;;;;0.10;0.10;;;;;;;;;;4902943;29;20098;-90
2022/06/05 00:44:40;;;;;;;0.20;0.20;;;;;;;;;;4886983;29;20059;-90
2022/06/05 00:47:08;;;;;;;0.15;0.15;;;;;;;;;;4887227;29;20039;-90
2022/06/05 00:49:40;;;;;;;0.20;0.20;;;;;;;;;;4887181;29;20491;-91
2022/06/05 00:52:07;;;;;;;0.20;0.20;;;;;;;;;;4887210;29;20043;-89
2022/06/05 00:54:33;;;;;;;0.10;0.10;;;;;;;;;;4887157;29;20466;-90
2022/06/05 00:56:59;;;;;;;0.10;0.10;;;;;;;;;;4887094;29;20082;-89
2022/06/05 00:59:24;;;;;;;0.20;0.20;;;;;;;;;;4886975;29;20071;-89
2022/06/05 01:01:51;;;;;;;0.10;0.10;;;;;;;;;;4886724;29;20448;-89
2022/06/05 01:04:16;;;;;;;0.10;0.10;;;;;;;;;;4886401;29;20487;-90
2022/06/05 01:06:42;;;;;;;0.10;0.10;;;;;;;;;;4886958;29;20126;-90
2022/06/05 01:09:08;;;;;;;0.10;0.10;;;;;;;;;;4886737;29;20503;-90
2022/06/05 01:11:35;;;;;;;0.10;0.10;;;;;;;;;;4886836;29;20040;-88
2022/06/05 01:14:13;;;;;;;0.10;0.10;;;;;;;;;;4917805;29;20043;-89
2022/06/05 01:16:39;;;;;;;0.10;0.10;;;;;;;;;;4917918;29;20036;-89
2022/06/05 01:19:12;;;;;;;0.10;0.10;;;;;;;;;;4917941;29;20099;-89
2022/06/05 01:21:47;;;;;;;0.10;0.10;;;;;;;;;;4918332;29;20126;-89
2022/06/05 01:24:31;;;;;;;0.10;0.10;;;;;;;;;;4901866;29;20075;-90
2022/06/05 01:27:01;;;;;;;0.20;0.20;;;;;;;;;;4902185;29;20126;-89
2022/06/05 01:29:37;;;;;;;0.10;0.10;;;;;;;;;;4886752;29;20129;-89
2022/06/05 01:32:09;;;;;;;0.10;0.10;;;;;;;;;;4902420;29;20143;-90
2022/06/05 01:34:40;;;;;;;0.20;0.20;;;;;;;;;;4902118;29;20140;-91
2022/06/05 01:37:10;;;;;;;0.10;0.10;;;;;;;;;;4901968;29;20044;-89
2022/06/05 01:39:38;;;;;;;0.10;0.10;;;;;;;;;;4886537;29;20047;-90
2022/06/05 01:42:06;;;;;;;0.20;0.20;;;;;;;;;;4917920;29;20079;-90
2022/06/05 01:44:33;;;;;;;0.10;0.10;;;;;;;;;;4888162;29;20492;-90
2022/06/05 01:47:00;;;;;;;0.10;0.10;;;;;;;;;;4921627;29;20083;-91
2022/06/05 01:49:36;;;;;;;0.10;0.10;;;;;;;;;;4890361;29;20075;-90
2022/06/05 01:52:13;;;;;;;0.20;0.20;;;;;;;;;;4890132;29;20050;-89
2022/06/05 01:54:57;;;;;;;0.10;0.10;;;;;;;;;;4906000;29;20055;-88
2022/06/05 01:57:23;;;;;;;0.15;0.15;;;;;;;;;;4905625;29;20134;-89
2022/06/05 01:59:55;;;;;;;0.10;0.10;;;;;;;;;;4905618;29;20130;-89
2022/06/05 02:02:45;;;;;;;0.52;0.30;;;;;;;;;;4905264;29;20048;-89
2022/06/05 02:05:12;;;;;;;0.15;0.15;;;;;;;;;;4921308;29;20043;-88
2022/06/05 02:07:48;;;;;;;0.13;0.13;;;;;;;;;;4889962;29;20118;-89
2022/06/05 02:10:22;;;;;;;0.20;0.20;;;;;;;;;;4889824;29;20044;-89
2022/06/05 02:12:48;;;;;;;0.10;0.10;;;;;;;;;;4905327;29;20043;-89
2022/06/05 02:15:14;;;;;;;0.10;0.10;;;;;;;;;;4889688;29;20087;-89
2022/06/05 02:17:40;;;;;;;0.10;0.10;;;;;;;;;;4905337;29;20086;-89
2022/06/05 02:20:07;;;;;;;0.40;0.20;;;;;;;;;;4889787;29;20488;-89
2022/06/05 02:22:41;;;;;;;0.10;0.10;;;;;;;;;;4905046;29;20118;-89
2022/06/05 02:25:07;;;;;;;0.35;0.20;;;;;;;;;;4889757;29;20496;-90
2022/06/05 02:27:33;;;;;;;0.13;0.13;;;;;;;;;;4889357;29;20074;-90
2022/06/05 02:29:59;;;;;;;0.10;0.10;;;;;;;;;;4905057;29;20043;-89
2022/06/05 02:32:43;;;;;;;0.10;0.10;;;;;;;;;;4889408;29;20090;-89
2022/06/05 02:35:19;;;;;;;0.10;0.10;;;;;;;;;;4904923;29;20048;-90
2022/06/05 02:38:00;;;;;;;0.10;0.10;;;;;;;;;;4889376;29;20050;-89
2022/06/05 02:40:31;;;;;;;0.47;0.20;;;;;;;;;;4904856;29;20062;-90
2022/06/05 02:43:04;;;;;;;0.10;0.10;;;;;;;;;;4889144;29;20098;-91
2022/06/05 02:45:49;;;;;;;0.10;0.10;;;;;;;;;;4889330;29;20095;-90
2022/06/05 02:48:18;;;;;;;0.20;0.20;;;;;;;;;;4904973;29;20103;-91
2022/06/05 02:50:49;;;;;;;0.20;0.20;;;;;;;;;;4904898;29;20366;-91
2022/06/05 02:53:15;;;;;;;0.10;0.10;;;;;;;;;;4888897;29;20043;-91
2022/06/05 02:55:41;;;;;;;0.10;0.10;;;;;;;;;;4888881;29;20047;-91
2022/06/05 02:58:08;;;;;;;0.10;0.10;;;;;;;;;;4904944;29;20522;-92
2022/06/05 03:00:34;;;;;;;0.28;0.28;;;;;;;;;;4889220;29;20047;-92
2022/06/05 03:05:45;;;;;;;0.20;0.20;;;;;;;;;;4907207;29;20067;-91
2022/06/05 03:08:13;;;;;;;0.10;0.10;;;;;;;;;;4889082;29;20082;-90
2022/06/05 03:10:39;;;;;;;0.10;0.10;;;;;;;;;;4904855;29;20388;-90
2022/06/05 03:13:05;;;;;;;0.70;0.70;;;;;;;;;;4888999;29;20055;-91
2022/06/05 03:15:31;;;;;;;0.10;0.10;;;;;;;;;;4904498;29;20050;-92
2022/06/05 03:17:57;;;;;;;0.35;0.35;;;;;;;;;;4889071;29;20044;-91
2022/06/05 03:20:24;;;;;;;0.30;0.30;;;;;;;;;;4904714;29;20407;-92
2022/06/05 03:22:50;;;;;;;0.10;0.10;;;;;;;;;;4888841;29;20258;-90
2022/06/05 03:25:18;;;;;;;0.10;0.10;;;;;;;;;;4889071;29;20507;-90
2022/06/05 03:27:46;;;;;;;0.10;0.10;;;;;;;;;;4888981;29;20035;-92
2022/06/05 03:30:13;;;;;;;0.20;0.20;;;;;;;;;;4888720;29;20059;-91
2022/06/05 03:32:41;;;;;;;0.20;0.20;;;;;;;;;;4903770;29;20399;-91
2022/06/05 03:35:07;;;;;;;0.22;0.22;;;;;;;;;;4888667;29;20516;-90
2022/06/05 03:37:33;;;;;;;0.10;0.10;;;;;;;;;;4888396;29;20574;-91
2022/06/05 03:39:59;;;;;;;0.10;0.10;;;;;;;;;;4904211;29;20084;-91
2022/06/05 03:42:25;;;;;;;0.10;0.10;;;;;;;;;;4888288;29;20040;-90
2022/06/05 03:44:55;;;;;;;0.10;0.10;;;;;;;;;;4888122;29;20048;-90
2022/06/05 03:47:21;;;;;;;0.10;0.10;;;;;;;;;;4903583;29;20039;-90
2022/06/05 03:49:47;;;;;;;0.10;0.10;;;;;;;;;;4903678;29;20044;-90
2022/06/05 03:52:15;;;;;;;0.10;0.10;;;;;;;;;;4903952;29;20106;-91
2022/06/05 03:54:45;;;;;;;0.20;0.20;;;;;;;;;;4888499;29;20098;-91
2022/06/05 03:57:17;;;;;;;0.10;0.10;;;;;;;;;;4919220;29;20083;-90
2022/06/05 03:59:44;;;;;;;0.10;0.10;;;;;;;;;;4919381;29;20047;-92
2022/06/05 04:02:11;;;;;;;0.10;0.10;;;;;;;;;;4888357;29;20086;-91
2022/06/05 04:04:37;;;;;;;0.20;0.20;;;;;;;;;;4903946;29;20431;-91
2022/06/05 04:07:04;;;;;;;0.10;0.10;;;;;;;;;;4887615;29;20513;-92
2022/06/05 04:09:35;;;;;;;3.20;0.30;;;;;;;;;;4903856;29;20126;-90
2022/06/05 04:12:07;;;;;;;0.13;0.13;;;;;;;;;;4904061;29;20048;-91
2022/06/05 04:14:33;;;;;;;0.10;0.10;;;;;;;;;;4903476;29;20044;-91
2022/06/05 04:16:59;;;;;;;0.32;0.20;;;;;;;;;;4916238;29;20130;-90
2022/06/05 04:19:25;;;;;;;0.10;0.10;;;;;;;;;;4917716;29;20047;-91
2022/06/05 04:21:53;;;;;;;0.10;0.10;;;;;;;;;;4891585;29;20036;-91
2022/06/05 04:24:20;;;;;;;0.20;0.20;;;;;;;;;;4888018;29;20130;-91
2022/06/05 04:26:49;;;;;;;0.10;0.10;;;;;;;;;;4915179;29;20051;-91
2022/06/05 04:29:15;;;;;;;0.10;0.10;;;;;;;;;;4907700;29;20433;-91
2022/06/05 04:31:45;;;;;;;0.10;0.10;;;;;;;;;;4903290;29;20039;-89
2022/06/05 04:34:12;;;;;;;0.30;0.30;;;;;;;;;;4887358;29;20071;-89
2022/06/05 04:36:38;;;;;;;0.10;0.10;;;;;;;;;;4887126;29;20207;-88
2022/06/05 04:39:04;;;;;;;0.10;0.10;;;;;;;;;;4902781;29;20229;-88
2022/06/05 04:41:30;;;;;;;0.52;0.32;;;;;;;;;;4902867;29;20055;-88
2022/06/05 04:43:56;;;;;;;0.40;0.40;;;;;;;;;;4902462;29;20082;-88
2022/06/05 04:46:23;;;;;;;0.10;0.10;;;;;;;;;;4918163;29;20099;-88
2022/06/05 04:48:49;;;;;;;0.10;0.10;;;;;;;;;;4918763;29;20202;-88
2022/06/05 04:51:15;;;;;;;0.10;0.10;;;;;;;;;;4902843;29;20040;-88
2022/06/05 04:53:41;;;;;;;0.10;0.10;;;;;;;;;;4902660;29;20503;-88
2022/06/05 04:56:08;;;;;;;0.10;0.10;;;;;;;;;;4887004;29;20134;-88
2022/06/05 04:58:34;;;;;;;0.20;0.20;;;;;;;;;;4902471;29;20050;-90
2022/06/05 05:01:00;;;;;;;0.08;0.08;;;;;;;;;;4902438;29;20075;-89
2022/06/05 05:03:26;;;;;;;0.80;0.47;;;;;;;;;;4886584;29;20138;-88
2022/06/05 05:05:52;;;;;;;0.10;0.10;;;;;;;;;;4886784;29;20071;-88
2022/06/05 05:08:19;;;;;;;1.75;0.45;;;;;;;;;;4886769;29;20039;-88
2022/06/05 05:10:45;;;;;;;0.10;0.10;;;;;;;;;;4902429;29;20051;-90
2022/06/05 05:13:11;;;;;;;0.20;0.20;;;;;;;;;;4902219;29;20043;-89
2022/06/05 05:15:37;;;;;;;0.13;0.13;;;;;;;;;;4886864;29;20044;-90
2022/06/05 05:18:05;;;;;;;0.30;0.28;;;;;;;;;;4886794;29;20514;-90
2022/06/05 05:20:33;;;;;;;0.10;0.10;;;;;;;;;;4886576;29;20138;-91
2022/06/05 05:22:59;;;;;;;0.20;0.20;;;;;;;;;;4886796;29;20459;-91
2022/06/05 05:25:25;;;;;;;0.10;0.10;;;;;;;;;;4886700;29;20047;-92
2022/06/05 05:27:51;;;;;;;0.10;0.10;;;;;;;;;;4886727;29;20044;-89
2022/06/05 05:30:18;;;;;;;0.20;0.20;;;;;;;;;;4902285;29;20075;-92
2022/06/05 05:32:44;;;;;;;0.17;0.17;;;;;;;;;;4886737;29;20054;-91
2022/06/05 05:35:10;;;;;;;0.20;0.20;;;;;;;;;;4902229;29;20043;-89
2022/06/05 05:37:36;;;;;;;0.10;0.10;;;;;;;;;;4886865;29;20399;-90
2022/06/05 05:42:47;;;;;;;0.10;0.10;;;;;;;;;;4917800;29;20047;-90
2022/06/05 05:45:14;;;;;;;0.10;0.10;;;;;;;;;;4886411;29;20107;-91
2022/06/05 05:47:41;;;;;;;0.10;0.10;;;;;;;;;;4902196;29;20079;-90
2022/06/05 05:50:08;;;;;;;0.13;0.13;;;;;;;;;;4886926;29;20036;-89
2022/06/05 05:52:34;;;;;;;0.10;0.10;;;;;;;;;;4881788;29;20059;-89
2022/06/05 05:55:01;;;;;;;0.10;0.10;;;;;;;;;;4881678;29;20460;-90
2022/06/05 05:57:27;;;;;;;0.10;0.10;;;;;;;;;;4889283;29;20048;-89
2022/06/05 05:59:53;;;;;;;0.10;0.10;;;;;;;;;;4888191;29;20385;-89
2022/06/05 06:02:21;;;;;;;0.20;0.20;;;;;;;;;;4872857;29;20047;-89
2022/06/05 06:04:47;;;;;;;0.10;0.10;;;;;;;;;;4876581;29;20040;-89
2022/06/05 06:07:14;;;;;;;0.10;0.10;;;;;;;;;;4912075;29;20044;-90
2022/06/05 06:09:40;;;;;;;0.10;0.10;;;;;;;;;;4926447;28;20047;-89
2022/06/05 06:12:06;;;;;;;0.20;0.20;;;;;;;;;;4918430;29;20104;-89
2022/06/05 06:14:33;;;;;;;0.10;0.10;;;;;;;;;;4889345;29;20044;-89
2022/06/05 06:16:59;;;;;;;0.10;0.10;;;;;;;;;;4867706;29;20079;-89
2022/06/05 06:19:25;;;;;;;0.25;0.25;;;;;;;;;;4867608;29;20400;-88
2022/06/05 06:21:51;;;;;;;0.10;0.10;;;;;;;;;;4867464;29;20036;-88
2022/06/05 06:24:17;;;;;;;0.22;0.22;;;;;;;;;;4867427;29;20040;-89
2022/06/05 06:26:43;;;;;;;0.10;0.10;;;;;;;;;;4883030;29;20127;-89
2022/06/05 06:29:09;;;;;;;0.28;0.20;;;;;;;;;;4867440;29;20040;-89
2022/06/05 06:31:35;;;;;;;0.10;0.10;;;;;;;;;;4885925;29;20054;-88
2022/06/05 06:34:01;;;;;;;0.57;0.57;;;;;;;;;;4899845;29;20341;-89
2022/06/05 06:36:27;;;;;;;0.10;0.10;;;;;;;;;;4904904;29;20073;-89
2022/06/05 06:38:53;;;;;;;0.10;0.10;;;;;;;;;;4904765;29;20054;-88
2022/06/05 06:41:20;;;;;;;0.10;0.10;;;;;;;;;;4905142;29;20123;-89
2022/06/05 06:43:46;;;;;;;0.10;0.10;;;;;;;;;;4904298;29;20055;-89
2022/06/05 06:46:12;;;;;;;0.10;0.10;;;;;;;;;;4904811;29;20052;-90
2022/06/05 06:48:38;;;;;;;0.13;0.13;;;;;;;;;;4904776;29;20539;-89
2022/06/05 06:51:04;;;;;;;0.13;0.13;;;;;;;;;;4904597;29;20036;-89
2022/06/05 06:53:30;;;;;;;0.10;0.10;;;;;;;;;;4888971;29;20054;-88
2022/06/05 06:55:57;;;;;;;0.10;0.10;;;;;;;;;;4904747;29;20081;-89
2022/06/05 06:58:23;;;;;;;0.20;0.20;;;;;;;;;;4889414;29;20497;-89
2022/06/05 07:00:49;;;;;;;0.10;0.10;;;;;;;;;;4888990;29;20090;-89
2022/06/05 07:03:15;;;;;;;0.20;0.20;;;;;;;;;;4888956;29;20048;-89
2022/06/05 07:05:41;;;;;;;0.10;0.10;;;;;;;;;;4888495;29;20094;-88
2022/06/05 07:08:07;;;;;;;2.17;0.30;;;;;;;;;;4920010;29;20073;-90
2022/06/05 07:10:33;;;;;;;0.20;0.20;;;;;;;;;;4904442;29;20407;-88
2022/06/05 07:12:59;;;;;;;0.80;0.30;;;;;;;;;;4904217;29;20039;-88
2022/06/05 07:15:26;;;;;;;0.15;0.15;;;;;;;;;;4920130;29;20039;-89
2022/06/05 07:17:53;;;;;;;0.20;0.20;;;;;;;;;;4905056;29;20403;-91
2022/06/05 07:20:20;;;;;;;0.25;0.25;;;;;;;;;;4904277;29;20051;-88
2022/06/05 07:22:45;;;;;;;0.15;0.15;;;;;;;;;;4904365;29;20420;-89
2022/06/05 07:25:12;;;;;;;0.13;0.13;;;;;;;;;;4904249;29;20040;-89
2022/06/05 07:27:37;;;;;;;0.10;0.10;;;;;;;;;;4903992;29;20094;-88
2022/06/05 07:30:04;;;;;;;0.10;0.10;;;;;;;;;;4920020;29;20459;-89
2022/06/05 07:32:32;;;;;;;0.13;0.13;;;;;;;;;;4919755;29;20047;-89
2022/06/05 07:34:58;;;;;;;0.20;0.20;;;;;;;;;;4919825;29;20467;-90
2022/06/05 07:37:24;;;;;;;0.20;0.20;;;;;;;;;;4904245;29;20055;-89
2022/06/05 07:39:50;;;;;;;0.35;0.22;;;;;;;;;;4919645;29;20053;-92
2022/06/05 07:42:16;;;;;;;0.10;0.10;;;;;;;;;;4918395;29;20039;-91
2022/06/05 07:44:42;;;;;;;0.10;0.10;;;;;;;;;;4919274;29;20051;-89
2022/06/05 07:47:08;;;;;;;0.20;0.20;;;;;;;;;;4919185;29;20044;-89
2022/06/05 07:49:35;;;;;;;0.20;0.20;;;;;;;;;;4903838;29;20076;-89
2022/06/05 07:54:46;;;;;;;0.20;0.20;;;;;;;;;;4906067;29;20055;-90
2022/06/05 07:57:13;;;;;;;0.10;0.10;;;;;;;;;;4903446;29;20384;-89
2022/06/05 07:59:39;;;;;;;0.20;0.20;;;;;;;;;;4903507;29;20047;-89
2022/06/05 08:02:06;;;;;;;0.10;0.10;;;;;;;;;;4903775;29;20098;-89
2022/06/05 08:04:36;;;;;;;0.20;0.20;;;;;;;;;;4918879;29;20103;-89
2022/06/05 08:07:02;;;;;;;0.10;0.10;;;;;;;;;;4903203;29;20054;-88
2022/06/05 08:09:29;;;;;;;0.20;0.20;;;;;;;;;;4919245;29;20091;-93
2022/06/05 08:11:58;;;;;;;0.17;0.17;;;;;;;;;;4903154;29;20059;-94
2022/06/05 08:14:28;;;;;;;0.90;0.28;;;;;;;;;;4903850;29;20040;-93
2022/06/05 08:16:56;;;;;;;0.20;0.20;;;;;;;;;;4887503;29;20051;-94
2022/06/05 08:19:23;;;;;;;0.10;0.10;;;;;;;;;;4891001;29;20044;-93
2022/06/05 08:21:53;;;;;;;0.20;0.20;;;;;;;;;;4892261;29;20043;-94
2022/06/05 08:24:26;;;;;;;0.20;0.20;;;;;;;;;;4917691;29;20114;-92
2022/06/05 08:26:52;;;;;;;0.20;0.20;;;;;;;;;;4909970;29;20112;-93
2022/06/05 08:29:19;;;;;;;0.10;0.10;;;;;;;;;;4922320;29;20318;-89
2022/06/05 08:31:45;;;;;;;0.10;0.10;;;;;;;;;;4921941;29;20074;-89
2022/06/05 08:34:12;;;;;;;0.10;0.10;;;;;;;;;;4921964;29;20066;-89
2022/06/05 08:36:38;;;;;;;0.20;0.20;;;;;;;;;;4921961;29;20043;-89
2022/06/05 08:42:02;;;;;;;0.10;0.10;;;;;;;;;;4920716;29;20126;-88
2022/06/05 08:44:42;;;;;;;0.10;0.10;;;;;;;;;;4918453;29;20055;-88
2022/06/05 08:47:20;;;;;;;0.22;0.20;;;;;;;;;;4934011;29;20050;-88
2022/06/05 08:50:05;;;;;;;0.10;0.10;;;;;;;;;;4902799;29;20039;-88
2022/06/05 08:52:30;;;;;;;0.20;0.20;;;;;;;;;;4906862;29;20051;-91
2022/06/05 08:55:09;;;;;;;0.17;0.17;;;;;;;;;;4902449;29;20472;-91
2022/06/05 08:57:38;;;;;;;0.20;0.20;;;;;;;;;;4886939;29;20044;-90
2022/06/05 09:00:16;;;;;;;0.22;0.22;;;;;;;;;;4902346;29;20043;-89
2022/06/05 09:02:42;;;;;;;0.20;0.20;;;;;;;;;;4887118;29;20506;-91
2022/06/05 09:05:14;;;;;;;0.10;0.10;;;;;;;;;;4902202;29;20081;-90
2022/06/05 09:08:08;;;;;;;0.20;0.20;;;;;;;;;;4902332;29;20118;-90
2022/06/05 09:10:45;;;;;;;0.20;0.20;;;;;;;;;;4889705;29;20050;-90
2022/06/05 09:13:22;;;;;;;0.20;0.20;;;;;;;;;;4886559;29;20086;-90
2022/06/05 09:15:49;;;;;;;0.20;0.20;;;;;;;;;;4901479;29;20503;-89
2022/06/05 09:18:17;;;;;;;0.20;0.20;;;;;;;;;;4901953;29;20048;-89
2022/06/05 09:20:56;;;;;;;0.20;0.20;;;;;;;;;;4886764;29;20380;-89
2022/06/05 09:23:25;;;;;;;0.20;0.20;;;;;;;;;;4901745;29;20051;-87
2022/06/05 09:26:16;;;;;;;0.30;0.30;;;;;;;;;;4917528;29;20036;-89
2022/06/05 09:29:00;;;;;;;0.20;0.20;;;;;;;;;;4876568;29;20083;-87
2022/06/05 09:31:36;;;;;;;0.10;0.10;;;;;;;;;;4917859;29;20051;-88
2022/06/05 09:34:05;;;;;;;0.13;0.13;;;;;;;;;;4905225;29;20107;-87
2022/06/05 09:36:31;;;;;;;0.17;0.17;;;;;;;;;;4903346;29;20369;-87
2022/06/05 09:39:16;;;;;;;0.10;0.10;;;;;;;;;;4887373;29;20055;-88
2022/06/05 09:41:42;;;;;;;0.20;0.20;;;;;;;;;;4902843;29;20131;-87
2022/06/05 09:44:24;;;;;;;0.10;0.10;;;;;;;;;;4917209;29;20138;-89
2022/06/05 09:47:03;;;;;;;0.10;0.10;;;;;;;;;;4901944;29;20043;-89
2022/06/05 09:49:34;;;;;;;0.17;0.17;;;;;;;;;;4902290;29;20051;-90
2022/06/05 09:52:05;;;;;;;0.10;0.10;;;;;;;;;;4886747;29;20419;-91
2022/06/05 09:54:32;;;;;;;0.20;0.20;;;;;;;;;;4886590;29;20036;-91
2022/06/05 10:00:05;;;;;;;0.20;0.20;;;;;;;;;;4917513;29;20107;-90
2022/06/05 10:02:31;;;;;;;0.10;0.10;;;;;;;;;;4901961;29;20059;-88
2022/06/05 10:04:57;;;;;;;0.20;0.20;;;;;;;;;;4902540;29;20039;-89
2022/06/05 10:07:29;;;;;;;0.20;0.20;;;;;;;;;;4920914;29;20091;-88
2022/06/05 10:09:55;;;;;;;;;;;;;;;;;;4905759;29;20043;-90
2022/06/05 10:12:23;;;;;;;0.30;0.30;;;;;;;;;;4920604;29;19970;-89
2022/06/05 10:14:51;;;;;;;0.20;0.20;;;;;;;;;;4905176;29;20511;-89
2022/06/05 10:17:23;;;;;;;0.10;0.10;;;;;;;;;;4890040;29;20484;-89
2022/06/05 10:19:56;;;;;;;0.20;0.20;;;;;;;;;;4904868;29;20503;-88
2022/06/05 10:22:40;;;;;;;0.17;0.17;;;;;;;;;;4889364;29;20047;-88
2022/06/05 10:25:13;;;;;;;0.22;0.22;;;;;;;;;;4920989;29;20337;-88
2022/06/05 10:27:39;;;;;;;0.10;0.10;;;;;;;;;;4920788;29;20059;-89
2022/06/05 10:30:05;;;;;;;0.20;0.20;;;;;;;;;;4905232;29;20043;-87
2022/06/05 10:32:40;;;;;;;0.30;0.30;;;;;;;;;;4920841;29;20048;-89
2022/06/05 10:35:25;;;;;;;0.10;0.10;;;;;;;;;;4904659;29;20079;-86
2022/06/05 10:37:53;;;;;;;0.10;0.10;;;;;;;;;;4920681;29;20051;-88
2022/06/05 10:40:38;;;;;;;0.20;0.20;;;;;;;;;;4889510;29;20067;-87
2022/06/05 10:43:14;;;;;;;0.45;0.30;;;;;;;;;;4904488;29;20117;-88
2022/06/05 10:45:47;;;;;;;0.20;0.20;;;;;;;;;;4904677;29;20547;-88
2022/06/05 10:48:32;;;;;;;0.20;0.20;;;;;;;;;;4904912;29;20048;-88
2022/06/05 10:51:00;;;;;;;0.10;0.10;;;;;;;;;;4920381;29;20090;-88
2022/06/05 10:53:38;;;;;;;0.30;0.30;;;;;;;;;;4889231;29;20083;-88
2022/06/05 10:56:13;;;;;;;0.20;0.20;;;;;;;;;;4904368;29;20518;-88
2022/06/05 10:58:48;;;;;;;1.67;0.20;;;;;;;;;;4904885;29;20400;-87
2022/06/05 11:01:35;;;;;;;0.20;0.20;;;;;;;;;;4920255;29;20051;-87
2022/06/05 11:04:06;;;;;;;0.30;0.30;;;;;;;;;;4919985;29;20044;-88
2022/06/05 11:06:44;;;;;;;0.20;0.20;;;;;;;;;;4904880;29;20039;-88
2022/06/05 11:09:26;;;;;;;0.35;0.35;;;;;;;;;;4920349;29;20448;-87
2022/06/05 11:14:52;;;;;;;0.10;0.10;;;;;;;;;;4920042;29;20043;-87
2022/06/05 11:17:30;;;;;;;0.52;0.45;;;;;;;;;;4904222;29;20071;-88
2022/06/05 11:20:07;;;;;;;0.30;0.30;;;;;;;;;;4904261;29;20055;-88
2022/06/05 11:22:33;;;;;;;0.40;0.40;;;;;;;;;;4903956;29;20036;-87
2022/06/05 11:25:13;;;;;;;0.45;0.45;;;;;;;;;;4904055;29;20052;-88
2022/06/05 11:27:45;;;;;;;0.32;0.30;;;;;;;;;;4903985;29;20054;-88
2022/06/05 11:30:11;;;;;;;;;;;;;;;;;;4904625;29;20047;-88
2022/06/05 11:32:44;;;;;;;0.45;0.40;;;;;;;;;;4919756;29;19925;-88
2022/06/05 11:35:29;;;;;;;0.20;0.20;;;;;;;;;;4888387;29;20510;-88
2022/06/05 11:38:13;;;;;;;0.20;0.20;;;;;;;;;;4919410;29;20075;-88
2022/06/05 11:40:58;;;;;;;0.20;0.20;;;;;;;;;;4888554;29;20102;-87
2022/06/05 11:43:27;;;;;;;0.20;0.20;;;;;;;;;;4903958;29;20051;-88
2022/06/05 11:45:59;;;;;;;0.20;0.20;;;;;;;;;;4903721;29;20079;-89
2022/06/05 11:48:28;;;;;;;0.20;0.20;;;;;;;;;;4888117;29;20190;-88
2022/06/05 11:51:03;;;;;;;0.20;0.20;;;;;;;;;;4887266;29;20306;-87
2022/06/05 11:53:29;;;;;;;0.35;0.35;;;;;;;;;;4903346;29;20479;-88
2022/06/05 11:56:17;;;;;;;0.10;0.10;;;;;;;;;;4919119;29;20047;-87
2022/06/05 11:58:58;;;;;;;0.22;0.22;;;;;;;;;;4903497;29;20054;-88
2022/06/05 12:01:28;;;;;;;0.32;0.32;;;;;;;;;;4928226;29;20039;-88
2022/06/05 12:03:54;;;;;;;0.20;0.20;;;;;;;;;;4903286;29;20043;-88
2022/06/05 12:06:34;;;;;;;0.20;0.20;;;;;;;;;;4918968;29;20035;-88
2022/06/05 12:09:01;;;;;;;0.40;0.40;;;;;;;;;;4919072;29;20044;-88
2022/06/05 12:11:34;;;;;;;0.20;0.20;;;;;;;;;;4903178;29;20036;-88
2022/06/05 12:14:18;;;;;;;0.40;0.40;;;;;;;;;;4918935;29;20036;-87
2022/06/05 12:16:44;;;;;;;0.10;0.10;;;;;;;;;;4934976;29;20243;-87
2022/06/05 12:19:23;;;;;;;0.25;0.25;;;;;;;;;;4934687;29;20184;-86
2022/06/05 12:22:03;;;;;;;0.20;0.20;;;;;;;;;;4934605;29;20216;-86
2022/06/05 12:24:36;;;;;;;0.10;0.10;;;;;;;;;;4918727;29;20349;-87
2022/06/05 12:27:07;;;;;;;0.10;0.10;;;;;;;;;;4918595;29;20050;-88
2022/06/05 12:29:35;;;;;;;0.20;0.20;;;;;;;;;;4918373;29;20043;-88
2022/06/05 12:32:01;;;;;;;0.10;0.10;;;;;;;;;;4918691;29;20066;-88
2022/06/05 12:34:29;;;;;;;0.20;0.20;;;;;;;;;;4934254;29;20108;-88
2022/06/05 12:37:06;;;;;;;0.20;0.20;;;;;;;;;;4918608;29;20095;-89
2022/06/05 12:39:34;;;;;;;0.10;0.10;;;;;;;;;;4918741;29;20134;-88
2022/06/05 12:42:09;;;;;;;0.10;0.10;;;;;;;;;;4918483;29;20118;-88
2022/06/05 12:44:43;;;;;;;0.20;0.20;;;;;;;;;;4933883;29;20089;-88
2022/06/05 12:47:16;;;;;;;0.30;0.30;;;;;;;;;;4918480;29;20127;-88
2022/06/05 12:49:42;;;;;;;0.43;0.43;;;;;;;;;;4902518;29;20044;-88
2022/06/05 12:52:14;;;;;;;0.20;0.20;;;;;;;;;;4934050;29;20399;-88
2022/06/05 12:54:46;;;;;;;0.20;0.20;;;;;;;;;;4933914;29;20139;-87
2022/06/05 12:57:14;;;;;;;0.20;0.20;;;;;;;;;;4933774;29;20043;-88
2022/06/05 12:59:49;;;;;;;0.30;0.30;;;;;;;;;;4902343;29;20043;-88
2022/06/05 13:02:29;;;;;;;0.20;0.20;;;;;;;;;;4917973;29;20102;-88
2022/06/05 13:04:57;;;;;;;2.08;0.63;;;;;;;;;;4918086;29;20043;-88
2022/06/05 13:07:42;;;;;;;0.30;0.30;;;;;;;;;;4902352;29;20646;-88
2022/06/05 13:10:17;;;;;;;0.52;0.20;;;;;;;;;;4933744;29;20369;-88
2022/06/05 13:12:47;;;;;;;0.20;0.20;;;;;;;;;;4917798;29;20051;-86
2022/06/05 13:15:30;;;;;;;0.20;0.20;;;;;;;;;;4918028;29;20630;-86
2022/06/05 13:18:15;;;;;;;0.15;0.15;;;;;;;;;;4902276;29;20427;-86
2022/06/05 13:20:44;;;;;;;0.20;0.20;;;;;;;;;;4933620;29;20052;-86
2022/06/05 13:23:30;;;;;;;0.63;0.40;;;;;;;;;;4917909;29;20051;-87
2022/06/05 13:26:15;;;;;;;0.20;0.20;;;;;;;;;;4917681;29;20082;-87
2022/06/05 13:28:47;;;;;;;0.20;0.20;;;;;;;;;;4918077;29;20083;-87
2022/06/05 13:31:23;;;;;;;0.20;0.20;;;;;;;;;;4933480;29;20040;-88
2022/06/05 13:33:49;;;;;;;0.30;0.30;;;;;;;;;;4918084;29;20055;-86
2022/06/05 13:36:33;;;;;;;0.20;0.20;;;;;;;;;;4934713;29;20052;-86
2022/06/05 13:39:01;;;;;;;0.20;0.20;;;;;;;;;;4933410;29;20039;-86
2022/06/05 13:41:33;;;;;;;0.10;0.10;;;;;;;;;;4921173;29;20063;-86
2022/06/05 13:44:22;;;;;;;0.20;0.20;;;;;;;;;;4921151;29;20052;-86
2022/06/05 13:46:48;;;;;;;0.10;0.10;;;;;;;;;;4929813;29;20457;-86
2022/06/05 13:49:20;;;;;;;0.10;0.10;;;;;;;;;;4937157;29;20044;-86
2022/06/05 13:51:48;;;;;;;0.40;0.40;;;;;;;;;;4937426;29;20063;-86
2022/06/05 13:54:16;;;;;;;0.20;0.20;;;;;;;;;;4921335;29;20502;-86
2022/06/05 13:56:44;;;;;;;0.30;0.30;;;;;;;;;;4905641;29;20054;-87
2022/06/05 13:59:25;;;;;;;0.20;0.20;;;;;;;;;;4921198;29;20102;-87
2022/06/05 14:02:05;;;;;;;0.40;0.40;;;;;;;;;;4921520;29;20048;-87
2022/06/05 14:04:31;;;;;;;0.30;0.30;;;;;;;;;;4921397;29;20447;-87
2022/06/05 14:06:59;;;;;;;0.22;0.22;;;;;;;;;;4905373;29;20036;-87
2022/06/05 14:09:38;;;;;;;0.20;0.20;;;;;;;;;;4905396;29;20047;-88
2022/06/05 14:12:04;;;;;;;0.20;0.20;;;;;;;;;;4920788;29;20403;-86
2022/06/05 14:14:41;;;;;;;0.20;0.20;;;;;;;;;;4920899;29;20048;-86
2022/06/05 14:17:07;;;;;;;0.20;0.20;;;;;;;;;;4920743;29;20043;-88
2022/06/05 14:19:34;;;;;;;0.40;0.40;;;;;;;;;;4920897;29;20531;-87
2022/06/05 14:22:12;;;;;;;0.10;0.10;;;;;;;;;;4920692;29;20199;-86
2022/06/05 14:24:39;;;;;;;0.20;0.20;;;;;;;;;;4936441;29;20040;-86
2022/06/05 14:27:05;;;;;;;0.35;0.35;;;;;;;;;;4920740;29;20040;-89
2022/06/05 14:29:37;;;;;;;0.20;0.20;;;;;;;;;;4920935;29;20352;-89
2022/06/05 14:32:18;;;;;;;0.20;0.20;;;;;;;;;;4920762;29;20047;-88
2022/06/05 14:34:45;;;;;;;0.20;0.20;;;;;;;;;;4936266;29;20048;-85
2022/06/05 14:37:32;;;;;;;0.17;0.17;;;;;;;;;;4920639;29;20039;-85
2022/06/05 14:40:05;;;;;;;0.17;0.17;;;;;;;;;;4937737;29;20035;-85
2022/06/05 14:42:32;;;;;;;0.30;0.30;;;;;;;;;;4920485;29;20360;-86
2022/06/05 14:45:00;;;;;;;0.50;0.50;;;;;;;;;;4936617;29;20059;-86
2022/06/05 14:47:28;;;;;;;0.10;0.10;;;;;;;;;;4936071;29;20036;-86
2022/06/05 14:49:55;;;;;;;0.20;0.20;;;;;;;;;;4936052;29;20040;-86
2022/06/05 14:52:35;;;;;;;0.35;0.35;;;;;;;;;;4919782;29;20126;-86
2022/06/05 14:58:03;;;;;;;0.20;0.20;;;;;;;;;;4922854;29;20340;-85
2022/06/05 15:00:34;;;;;;;0.20;0.20;;;;;;;;;;4935898;29;20043;-85
2022/06/05 15:03:14;;;;;;;0.10;0.10;;;;;;;;;;4935806;29;20055;-85
2022/06/05 15:06:01;;;;;;;0.10;0.10;;;;;;;;;;4893993;29;20047;-86
2022/06/05 15:08:46;;;;;;;0.25;0.25;;;;;;;;;;4906167;29;20507;-86
2022/06/05 15:11:25;;;;;;;0.38;0.38;;;;;;;;;;4919764;29;20044;-86
2022/06/05 15:13:56;;;;;;;0.30;0.30;;;;;;;;;;4906038;29;20139;-87
2022/06/05 15:16:30;;;;;;;0.10;0.10;;;;;;;;;;4888577;29;20392;-86
2022/06/05 15:18:56;;;;;;;0.20;0.20;;;;;;;;;;4919662;29;20131;-86
2022/06/05 15:21:22;;;;;;;0.30;0.30;;;;;;;;;;4904037;29;20114;-86
2022/06/05 15:23:54;;;;;;;0.45;0.45;;;;;;;;;;4903792;29;20043;-86